sensor_id;sensor_type;location;lat;lon;timestamp;temperature;humidity
3860;DHT22;1945;52.036;8.614;2022-11-02T00:02:20;12.10;1.00
3860;DHT22;1945;52.036;8.614;2022-11-02T00:04:48;11.50;1.00
3860;DHT22;1945;52.036;8.614;2022-11-02T00:07:15;11.70;1.00
3860;DHT22;1945;52.036;8.614;2022-11-02T00:09:42;11.50;1.00
3860;DHT22;1945;52.036;8.614;2022-11-02T00:12:09;11.50;1.00
3860;DHT22;1945;52.036;8.614;2022-11-02T00:14:35;11.50;1.00
3860;DHT22;1945;52.036;8.614;2022-11-02T00:17:02;11.50;1.00
3860;DHT22;1945;52.036;8.614;2022-11-02T00:19:29;11.60;1.00
3860;DHT22;1945;52.036;8.614;2022-11-02T00:21:57;11.60;1.00
3860;DHT22;1945;52.036;8.614;2022-11-02T00:24:26;11.50;1.00
3860;DHT22;1945;52.036;8.614;2022-11-02T00:26:53;11.50;1.00
3860;DHT22;1945;52.036;8.614;2022-11-02T00:29:20;11.50;1.00
3860;DHT22;1945;52.036;8.614;2022-11-02T00:31:48;11.60;1.00
3860;DHT22;1945;52.036;8.614;2022-11-02T00:34:15;11.60;1.00
3860;DHT22;1945;52.036;8.614;2022-11-02T00:36:42;11.60;1.00
3860;DHT22;1945;52.036;8.614;2022-11-02T00:39:10;11.50;1.00
3860;DHT22;1945;52.036;8.614;2022-11-02T00:41:37;11.60;1.00
3860;DHT22;1945;52.036;8.614;2022-11-02T00:44:04;11.60;1.00
3860;DHT22;1945;52.036;8.614;2022-11-02T00:46:30;11.60;1.00
3860;DHT22;1945;52.036;8.614;2022-11-02T00:48:57;11.60;1.00
3860;DHT22;1945;52.036;8.614;2022-11-02T00:51:24;11.60;1.00
3860;DHT22;1945;52.036;8.614;2022-11-02T00:53:51;11.70;1.00
3860;DHT22;1945;52.036;8.614;2022-11-02T00:56:19;11.70;1.00
3860;DHT22;1945;52.036;8.614;2022-11-02T00:58:45;11.80;1.00
3860;DHT22;1945;52.036;8.614;2022-11-02T01:01:12;11.80;1.00
3860;DHT22;1945;52.036;8.614;2022-11-02T01:03:39;11.80;1.00
3860;DHT22;1945;52.036;8.614;2022-11-02T01:06:07;11.80;1.00
3860;DHT22;1945;52.036;8.614;2022-11-02T01:08:34;11.80;1.00
3860;DHT22;1945;52.036;8.614;2022-11-02T01:11:09;11.80;1.00
3860;DHT22;1945;52.036;8.614;2022-11-02T01:13:37;11.90;1.00
3860;DHT22;1945;52.036;8.614;2022-11-02T01:16:05;11.80;1.00
3860;DHT22;1945;52.036;8.614;2022-11-02T01:18:32;11.90;1.00
3860;DHT22;1945;52.036;8.614;2022-11-02T01:20:59;12.00;1.00
3860;DHT22;1945;52.036;8.614;2022-11-02T01:23:26;12.00;1.00
3860;DHT22;1945;52.036;8.614;2022-11-02T01:25:53;12.00;1.00
3860;DHT22;1945;52.036;8.614;2022-11-02T01:28:19;11.90;44.30
3860;DHT22;1945;52.036;8.614;2022-11-02T01:30:48;11.90;99.90
3860;DHT22;1945;52.036;8.614;2022-11-02T01:33:14;11.90;99.90
3860;DHT22;1945;52.036;8.614;2022-11-02T01:35:41;11.90;99.90
3860;DHT22;1945;52.036;8.614;2022-11-02T01:38:08;11.80;99.90
3860;DHT22;1945;52.036;8.614;2022-11-02T01:40:35;11.90;99.90
3860;DHT22;1945;52.036;8.614;2022-11-02T01:43:18;11.80;99.90
3860;DHT22;1945;52.036;8.614;2022-11-02T01:45:45;11.90;99.90
3860;DHT22;1945;52.036;8.614;2022-11-02T01:48:14;12.00;99.90
3860;DHT22;1945;52.036;8.614;2022-11-02T01:50:41;12.00;99.90
3860;DHT22;1945;52.036;8.614;2022-11-02T01:53:08;11.90;1.00
3860;DHT22;1945;52.036;8.614;2022-11-02T01:55:35;11.80;1.00
3860;DHT22;1945;52.036;8.614;2022-11-02T01:58:06;11.70;1.00
3860;DHT22;1945;52.036;8.614;2022-11-02T02:00:34;11.80;1.00
3860;DHT22;1945;52.036;8.614;2022-11-02T02:03:05;11.70;1.00
3860;DHT22;1945;52.036;8.614;2022-11-02T02:05:38;11.70;1.00
3860;DHT22;1945;52.036;8.614;2022-11-02T02:08:06;11.70;1.00
3860;DHT22;1945;52.036;8.614;2022-11-02T02:10:34;11.70;1.00
3860;DHT22;1945;52.036;8.614;2022-11-02T02:13:02;11.70;1.00
3860;DHT22;1945;52.036;8.614;2022-11-02T02:15:38;11.70;1.00
3860;DHT22;1945;52.036;8.614;2022-11-02T02:18:09;11.70;1.00
3860;DHT22;1945;52.036;8.614;2022-11-02T02:21:03;11.80;1.00
3860;DHT22;1945;52.036;8.614;2022-11-02T02:27:01;11.70;1.00
3860;DHT22;1945;52.036;8.614;2022-11-02T02:29:34;11.70;1.00
3860;DHT22;1945;52.036;8.614;2022-11-02T02:32:08;11.70;1.00
3860;DHT22;1945;52.036;8.614;2022-11-02T02:34:46;11.70;1.00
3860;DHT22;1945;52.036;8.614;2022-11-02T02:37:18;11.70;1.00
3860;DHT22;1945;52.036;8.614;2022-11-02T02:39:52;11.70;30.90
3860;DHT22;1945;52.036;8.614;2022-11-02T02:42:23;11.80;26.80
3860;DHT22;1945;52.036;8.614;2022-11-02T02:44:59;11.80;78.10
3860;DHT22;1945;52.036;8.614;2022-11-02T02:47:28;11.70;99.90
3860;DHT22;1945;52.036;8.614;2022-11-02T02:50:03;11.70;99.90
3860;DHT22;1945;52.036;8.614;2022-11-02T02:52:33;11.30;99.90
3860;DHT22;1945;52.036;8.614;2022-11-02T02:55:03;11.70;99.90
3860;DHT22;1945;52.036;8.614;2022-11-02T02:57:33;11.70;95.80
3860;DHT22;1945;52.036;8.614;2022-11-02T03:00:02;11.70;91.70
3860;DHT22;1945;52.036;8.614;2022-11-02T03:02:32;11.70;88.50
3860;DHT22;1945;52.036;8.614;2022-11-02T03:04:59;11.70;1.00
3860;DHT22;1945;52.036;8.614;2022-11-02T03:07:28;11.70;26.80
3860;DHT22;1945;52.036;8.614;2022-11-02T03:10:04;11.70;1.00
3860;DHT22;1945;52.036;8.614;2022-11-02T03:12:38;11.80;1.00
3860;DHT22;1945;52.036;8.614;2022-11-02T03:15:29;11.70;1.00
3860;DHT22;1945;52.036;8.614;2022-11-02T03:18:06;11.80;1.00
3860;DHT22;1945;52.036;8.614;2022-11-02T03:20:45;11.80;1.00
3860;DHT22;1945;52.036;8.614;2022-11-02T03:23:18;11.70;1.00
3860;DHT22;1945;52.036;8.614;2022-11-02T03:25:54;11.70;1.00
3860;DHT22;1945;52.036;8.614;2022-11-02T03:28:25;11.70;1.00
3860;DHT22;1945;52.036;8.614;2022-11-02T03:31:06;11.70;1.00
3860;DHT22;1945;52.036;8.614;2022-11-02T03:33:36;11.90;1.00
3860;DHT22;1945;52.036;8.614;2022-11-02T03:36:06;11.80;1.00
3860;DHT22;1945;52.036;8.614;2022-11-02T03:38:42;11.80;1.00
3860;DHT22;1945;52.036;8.614;2022-11-02T03:41:09;11.80;1.00
3860;DHT22;1945;52.036;8.614;2022-11-02T03:43:38;11.70;1.00
3860;DHT22;1945;52.036;8.614;2022-11-02T03:46:09;11.70;1.00
3860;DHT22;1945;52.036;8.614;2022-11-02T03:48:39;11.70;1.00
3860;DHT22;1945;52.036;8.614;2022-11-02T03:51:10;12.30;1.00
3860;DHT22;1945;52.036;8.614;2022-11-02T03:53:43;11.70;1.00
3860;DHT22;1945;52.036;8.614;2022-11-02T03:56:16;11.70;1.00
3860;DHT22;1945;52.036;8.614;2022-11-02T03:58:49;11.70;1.00
3860;DHT22;1945;52.036;8.614;2022-11-02T04:01:18;11.70;1.00
3860;DHT22;1945;52.036;8.614;2022-11-02T04:03:46;11.70;1.00
3860;DHT22;1945;52.036;8.614;2022-11-02T04:06:13;12.20;1.00
3860;DHT22;1945;52.036;8.614;2022-11-02T04:08:41;11.70;1.00
3860;DHT22;1945;52.036;8.614;2022-11-02T04:11:10;11.60;1.00
3860;DHT22;1945;52.036;8.614;2022-11-02T04:13:55;11.70;1.00
3860;DHT22;1945;52.036;8.614;2022-11-02T04:16:41;11.70;1.00
3860;DHT22;1945;52.036;8.614;2022-11-02T04:19:09;11.70;1.00
3860;DHT22;1945;52.036;8.614;2022-11-02T04:21:53;11.60;1.00
3860;DHT22;1945;52.036;8.614;2022-11-02T04:24:38;11.70;1.00
3860;DHT22;1945;52.036;8.614;2022-11-02T04:27:23;11.60;1.00
3860;DHT22;1945;52.036;8.614;2022-11-02T04:29:49;11.60;1.00
3860;DHT22;1945;52.036;8.614;2022-11-02T04:32:18;11.50;1.00
3860;DHT22;1945;52.036;8.614;2022-11-02T04:35:06;11.50;1.00
3860;DHT22;1945;52.036;8.614;2022-11-02T04:37:37;11.50;1.00
3860;DHT22;1945;52.036;8.614;2022-11-02T04:40:22;11.60;1.00
3860;DHT22;1945;52.036;8.614;2022-11-02T04:42:48;11.70;1.00
3860;DHT22;1945;52.036;8.614;2022-11-02T04:45:15;11.80;1.00
3860;DHT22;1945;52.036;8.614;2022-11-02T04:47:43;12.40;1.00
3860;DHT22;1945;52.036;8.614;2022-11-02T04:50:10;11.80;1.00
3860;DHT22;1945;52.036;8.614;2022-11-02T04:52:38;11.80;1.00
3860;DHT22;1945;52.036;8.614;2022-11-02T04:55:05;11.80;1.00
3860;DHT22;1945;52.036;8.614;2022-11-02T04:57:32;11.80;1.00
3860;DHT22;1945;52.036;8.614;2022-11-02T04:59:59;11.80;1.00
3860;DHT22;1945;52.036;8.614;2022-11-02T05:02:26;11.80;1.00
3860;DHT22;1945;52.036;8.614;2022-11-02T05:04:54;11.90;1.00
3860;DHT22;1945;52.036;8.614;2022-11-02T05:07:21;11.80;1.00
3860;DHT22;1945;52.036;8.614;2022-11-02T05:09:48;11.90;1.00
3860;DHT22;1945;52.036;8.614;2022-11-02T05:12:14;11.90;1.00
3860;DHT22;1945;52.036;8.614;2022-11-02T05:14:41;11.80;1.00
3860;DHT22;1945;52.036;8.614;2022-11-02T05:17:08;11.80;1.00
3860;DHT22;1945;52.036;8.614;2022-11-02T05:19:35;11.80;1.00
3860;DHT22;1945;52.036;8.614;2022-11-02T05:22:03;11.90;1.00
3860;DHT22;1945;52.036;8.614;2022-11-02T05:24:30;11.80;1.00
3860;DHT22;1945;52.036;8.614;2022-11-02T05:26:56;12.00;1.00
3860;DHT22;1945;52.036;8.614;2022-11-02T05:29:25;11.80;1.00
3860;DHT22;1945;52.036;8.614;2022-11-02T05:31:51;11.80;1.00
3860;DHT22;1945;52.036;8.614;2022-11-02T05:34:18;11.90;1.00
3860;DHT22;1945;52.036;8.614;2022-11-02T05:36:46;12.00;1.00
3860;DHT22;1945;52.036;8.614;2022-11-02T05:39:14;11.90;1.00
3860;DHT22;1945;52.036;8.614;2022-11-02T05:41:41;12.20;1.00
3860;DHT22;1945;52.036;8.614;2022-11-02T05:44:08;12.10;1.00
3860;DHT22;1945;52.036;8.614;2022-11-02T05:46:35;11.90;1.00
3860;DHT22;1945;52.036;8.614;2022-11-02T05:49:02;12.00;1.00
3860;DHT22;1945;52.036;8.614;2022-11-02T05:51:28;12.00;1.00
3860;DHT22;1945;52.036;8.614;2022-11-02T05:53:56;11.90;1.00
3860;DHT22;1945;52.036;8.614;2022-11-02T05:56:24;11.90;1.00
3860;DHT22;1945;52.036;8.614;2022-11-02T05:58:53;12.00;1.00
3860;DHT22;1945;52.036;8.614;2022-11-02T06:01:20;11.90;1.00
3860;DHT22;1945;52.036;8.614;2022-11-02T06:03:46;12.00;1.00
3860;DHT22;1945;52.036;8.614;2022-11-02T06:06:13;12.00;1.00
3860;DHT22;1945;52.036;8.614;2022-11-02T06:08:40;12.00;1.00
3860;DHT22;1945;52.036;8.614;2022-11-02T06:11:08;12.10;1.00
3860;DHT22;1945;52.036;8.614;2022-11-02T06:13:37;12.10;1.00
3860;DHT22;1945;52.036;8.614;2022-11-02T06:16:06;12.00;1.00
3860;DHT22;1945;52.036;8.614;2022-11-02T06:18:34;12.10;1.00
3860;DHT22;1945;52.036;8.614;2022-11-02T06:21:01;12.00;1.00
3860;DHT22;1945;52.036;8.614;2022-11-02T06:23:28;12.00;1.00
3860;DHT22;1945;52.036;8.614;2022-11-02T06:25:57;11.90;1.00
3860;DHT22;1945;52.036;8.614;2022-11-02T06:28:25;11.90;1.00
3860;DHT22;1945;52.036;8.614;2022-11-02T06:30:53;11.80;1.00
3860;DHT22;1945;52.036;8.614;2022-11-02T06:33:20;11.90;1.00
3860;DHT22;1945;52.036;8.614;2022-11-02T06:35:49;11.80;1.00
3860;DHT22;1945;52.036;8.614;2022-11-02T06:38:17;11.90;1.00
3860;DHT22;1945;52.036;8.614;2022-11-02T06:40:52;11.90;1.00
3860;DHT22;1945;52.036;8.614;2022-11-02T06:43:19;11.90;1.00
3860;DHT22;1945;52.036;8.614;2022-11-02T06:45:46;11.90;1.00
3860;DHT22;1945;52.036;8.614;2022-11-02T06:48:14;12.00;1.00
3860;DHT22;1945;52.036;8.614;2022-11-02T06:50:41;12.00;1.00
3860;DHT22;1945;52.036;8.614;2022-11-02T06:53:08;12.00;1.00
3860;DHT22;1945;52.036;8.614;2022-11-02T06:55:34;12.70;1.00
3860;DHT22;1945;52.036;8.614;2022-11-02T06:58:01;12.20;1.00
3860;DHT22;1945;52.036;8.614;2022-11-02T07:00:28;12.20;1.00
3860;DHT22;1945;52.036;8.614;2022-11-02T07:02:58;12.20;1.00
3860;DHT22;1945;52.036;8.614;2022-11-02T07:05:26;12.30;1.00
3860;DHT22;1945;52.036;8.614;2022-11-02T07:07:54;12.20;1.00
3860;DHT22;1945;52.036;8.614;2022-11-02T07:10:21;12.30;1.00
3860;DHT22;1945;52.036;8.614;2022-11-02T07:12:50;12.50;1.00
3860;DHT22;1945;52.036;8.614;2022-11-02T07:15:17;12.60;1.00
3860;DHT22;1945;52.036;8.614;2022-11-02T07:17:44;12.50;1.00
3860;DHT22;1945;52.036;8.614;2022-11-02T07:20:11;12.50;1.00
3860;DHT22;1945;52.036;8.614;2022-11-02T07:22:39;12.50;1.00
3860;DHT22;1945;52.036;8.614;2022-11-02T07:25:06;12.50;1.00
3860;DHT22;1945;52.036;8.614;2022-11-02T07:27:37;12.50;1.00
3860;DHT22;1945;52.036;8.614;2022-11-02T07:30:05;12.50;1.00
3860;DHT22;1945;52.036;8.614;2022-11-02T07:32:38;12.50;1.00
3860;DHT22;1945;52.036;8.614;2022-11-02T07:35:06;12.50;1.00
3860;DHT22;1945;52.036;8.614;2022-11-02T07:37:33;12.50;1.00
3860;DHT22;1945;52.036;8.614;2022-11-02T07:40:02;12.60;99.90
3860;DHT22;1945;52.036;8.614;2022-11-02T07:42:29;12.60;99.90
3860;DHT22;1945;52.036;8.614;2022-11-02T07:44:56;12.60;99.90
3860;DHT22;1945;52.036;8.614;2022-11-02T07:47:23;12.70;99.90
3860;DHT22;1945;52.036;8.614;2022-11-02T07:49:50;12.70;99.90
3860;DHT22;1945;52.036;8.614;2022-11-02T07:52:16;12.80;99.90
3860;DHT22;1945;52.036;8.614;2022-11-02T07:54:43;12.90;99.90
3860;DHT22;1945;52.036;8.614;2022-11-02T07:57:11;12.90;99.90
3860;DHT22;1945;52.036;8.614;2022-11-02T07:59:38;12.90;99.90
3860;DHT22;1945;52.036;8.614;2022-11-02T08:02:05;12.90;99.90
3860;DHT22;1945;52.036;8.614;2022-11-02T08:04:32;12.90;99.90
3860;DHT22;1945;52.036;8.614;2022-11-02T08:06:59;12.90;99.90
3860;DHT22;1945;52.036;8.614;2022-11-02T08:09:26;12.90;99.90
3860;DHT22;1945;52.036;8.614;2022-11-02T08:11:55;12.90;99.90
3860;DHT22;1945;52.036;8.614;2022-11-02T08:14:23;13.00;49.90
3860;DHT22;1945;52.036;8.614;2022-11-02T08:16:50;13.10;37.10
3860;DHT22;1945;52.036;8.614;2022-11-02T08:19:17;13.20;1.00
3860;DHT22;1945;52.036;8.614;2022-11-02T08:21:44;13.20;1.00
3860;DHT22;1945;52.036;8.614;2022-11-02T08:24:11;13.20;1.00
3860;DHT22;1945;52.036;8.614;2022-11-02T08:26:37;13.10;1.00
3860;DHT22;1945;52.036;8.614;2022-11-02T08:29:04;13.10;1.00
3860;DHT22;1945;52.036;8.614;2022-11-02T08:31:32;13.00;1.00
3860;DHT22;1945;52.036;8.614;2022-11-02T08:33:59;13.10;1.00
3860;DHT22;1945;52.036;8.614;2022-11-02T08:36:26;13.10;1.00
3860;DHT22;1945;52.036;8.614;2022-11-02T08:38:53;13.10;1.00
3860;DHT22;1945;52.036;8.614;2022-11-02T08:41:19;13.10;1.00
3860;DHT22;1945;52.036;8.614;2022-11-02T08:43:46;13.30;1.00
3860;DHT22;1945;52.036;8.614;2022-11-02T08:46:13;13.20;1.00
3860;DHT22;1945;52.036;8.614;2022-11-02T08:48:41;13.20;1.00
3860;DHT22;1945;52.036;8.614;2022-11-02T08:51:08;13.30;1.00
3860;DHT22;1945;52.036;8.614;2022-11-02T08:53:35;13.20;1.00
3860;DHT22;1945;52.036;8.614;2022-11-02T08:56:03;13.20;1.00
3860;DHT22;1945;52.036;8.614;2022-11-02T08:58:29;13.10;1.00
3860;DHT22;1945;52.036;8.614;2022-11-02T09:00:56;13.20;1.00
3860;DHT22;1945;52.036;8.614;2022-11-02T09:03:23;13.20;1.00
3860;DHT22;1945;52.036;8.614;2022-11-02T09:05:55;13.40;1.00
3860;DHT22;1945;52.036;8.614;2022-11-02T09:08:22;13.40;1.00
3860;DHT22;1945;52.036;8.614;2022-11-02T09:10:50;13.50;1.00
3860;DHT22;1945;52.036;8.614;2022-11-02T09:13:18;13.50;99.90
3860;DHT22;1945;52.036;8.614;2022-11-02T09:15:50;13.60;1.00
3860;DHT22;1945;52.036;8.614;2022-11-02T09:18:17;13.60;1.00
3860;DHT22;1945;52.036;8.614;2022-11-02T09:20:44;13.60;1.00
3860;DHT22;1945;52.036;8.614;2022-11-02T09:23:14;13.60;1.00
3860;DHT22;1945;52.036;8.614;2022-11-02T09:25:41;13.60;99.90
3860;DHT22;1945;52.036;8.614;2022-11-02T09:28:08;13.60;1.00
3860;DHT22;1945;52.036;8.614;2022-11-02T09:30:35;13.70;99.90
3860;DHT22;1945;52.036;8.614;2022-11-02T09:33:03;13.70;99.90
3860;DHT22;1945;52.036;8.614;2022-11-02T09:35:32;13.80;99.90
3860;DHT22;1945;52.036;8.614;2022-11-02T09:37:59;13.70;99.90
3860;DHT22;1945;52.036;8.614;2022-11-02T09:40:29;13.90;99.90
3860;DHT22;1945;52.036;8.614;2022-11-02T09:43:04;13.90;33.10
3860;DHT22;1945;52.036;8.614;2022-11-02T09:45:33;13.90;1.00
3860;DHT22;1945;52.036;8.614;2022-11-02T09:48:04;14.00;1.00
3860;DHT22;1945;52.036;8.614;2022-11-02T09:50:39;14.20;1.00
3860;DHT22;1945;52.036;8.614;2022-11-02T09:53:12;14.00;1.00
3860;DHT22;1945;52.036;8.614;2022-11-02T09:55:48;13.90;1.00
3860;DHT22;1945;52.036;8.614;2022-11-02T09:58:18;13.80;1.00
3860;DHT22;1945;52.036;8.614;2022-11-02T10:00:47;13.80;1.00
3860;DHT22;1945;52.036;8.614;2022-11-02T10:03:24;13.70;31.20
3860;DHT22;1945;52.036;8.614;2022-11-02T10:05:57;13.80;1.00
3860;DHT22;1945;52.036;8.614;2022-11-02T10:08:30;13.90;1.00
3860;DHT22;1945;52.036;8.614;2022-11-02T10:11:11;14.00;1.00
3860;DHT22;1945;52.036;8.614;2022-11-02T10:13:43;13.90;1.00
3860;DHT22;1945;52.036;8.614;2022-11-02T10:16:14;14.00;1.00
3860;DHT22;1945;52.036;8.614;2022-11-02T10:18:41;14.00;1.00
3860;DHT22;1945;52.036;8.614;2022-11-02T10:21:17;14.10;1.00
3860;DHT22;1945;52.036;8.614;2022-11-02T10:23:48;14.20;1.00
3860;DHT22;1945;52.036;8.614;2022-11-02T10:26:22;14.20;1.00
3860;DHT22;1945;52.036;8.614;2022-11-02T10:28:55;14.10;1.00
3860;DHT22;1945;52.036;8.614;2022-11-02T10:31:26;14.30;95.40
3860;DHT22;1945;52.036;8.614;2022-11-02T10:33:56;14.30;99.90
3860;DHT22;1945;52.036;8.614;2022-11-02T10:36:32;14.10;99.90
3860;DHT22;1945;52.036;8.614;2022-11-02T10:39:09;14.20;19.20
3860;DHT22;1945;52.036;8.614;2022-11-02T10:41:58;14.10;99.90
3860;DHT22;1945;52.036;8.614;2022-11-02T10:44:37;14.00;22.90
3860;DHT22;1945;52.036;8.614;2022-11-02T10:47:14;14.10;68.50
3860;DHT22;1945;52.036;8.614;2022-11-02T10:52:34;14.00;1.00
3860;DHT22;1945;52.036;8.614;2022-11-02T10:55:02;14.20;1.00
3860;DHT22;1945;52.036;8.614;2022-11-02T10:57:31;14.30;1.00
3860;DHT22;1945;52.036;8.614;2022-11-02T11:00:21;14.30;6.70
3860;DHT22;1945;52.036;8.614;2022-11-02T11:03:02;14.30;1.00
3860;DHT22;1945;52.036;8.614;2022-11-02T11:05:29;14.10;1.00
3860;DHT22;1945;52.036;8.614;2022-11-02T11:07:57;14.00;1.00
3860;DHT22;1945;52.036;8.614;2022-11-02T11:10:24;13.90;1.00
3860;DHT22;1945;52.036;8.614;2022-11-02T11:12:54;14.00;1.00
3860;DHT22;1945;52.036;8.614;2022-11-02T11:15:23;13.90;1.00
3860;DHT22;1945;52.036;8.614;2022-11-02T11:17:51;13.90;1.00
3860;DHT22;1945;52.036;8.614;2022-11-02T11:20:30;13.70;1.00
3860;DHT22;1945;52.036;8.614;2022-11-02T11:23:08;13.70;1.00
3860;DHT22;1945;52.036;8.614;2022-11-02T11:25:42;13.70;99.90
3860;DHT22;1945;52.036;8.614;2022-11-02T11:28:22;13.60;99.90
3860;DHT22;1945;52.036;8.614;2022-11-02T11:31:01;13.70;1.00
3860;DHT22;1945;52.036;8.614;2022-11-02T11:33:30;13.80;1.00
3860;DHT22;1945;52.036;8.614;2022-11-02T11:35:58;13.80;1.00
3860;DHT22;1945;52.036;8.614;2022-11-02T11:38:26;13.90;1.00
3860;DHT22;1945;52.036;8.614;2022-11-02T11:40:54;14.00;1.00
3860;DHT22;1945;52.036;8.614;2022-11-02T11:43:26;14.10;1.00
3860;DHT22;1945;52.036;8.614;2022-11-02T11:45:55;14.20;1.00
3860;DHT22;1945;52.036;8.614;2022-11-02T11:48:29;14.20;1.00
3860;DHT22;1945;52.036;8.614;2022-11-02T11:51:01;14.20;1.00
3860;DHT22;1945;52.036;8.614;2022-11-02T11:53:30;14.20;1.00
3860;DHT22;1945;52.036;8.614;2022-11-02T11:55:58;14.30;1.00
3860;DHT22;1945;52.036;8.614;2022-11-02T11:58:27;14.20;1.00
3860;DHT22;1945;52.036;8.614;2022-11-02T12:01:03;14.00;99.90
3860;DHT22;1945;52.036;8.614;2022-11-02T12:03:31;13.90;99.90
3860;DHT22;1945;52.036;8.614;2022-11-02T12:06:04;14.00;99.90
3860;DHT22;1945;52.036;8.614;2022-11-02T12:08:42;14.10;99.90
3860;DHT22;1945;52.036;8.614;2022-11-02T12:11:22;14.40;99.90
3860;DHT22;1945;52.036;8.614;2022-11-02T12:14:03;14.10;1.00
3860;DHT22;1945;52.036;8.614;2022-11-02T12:16:54;14.10;99.90
3860;DHT22;1945;52.036;8.614;2022-11-02T12:19:30;14.30;99.90
3860;DHT22;1945;52.036;8.614;2022-11-02T12:22:06;14.30;99.90
3860;DHT22;1945;52.036;8.614;2022-11-02T12:25:01;14.20;99.90
3860;DHT22;1945;52.036;8.614;2022-11-02T12:27:36;14.10;99.90
3860;DHT22;1945;52.036;8.614;2022-11-02T12:30:16;14.20;99.90
3860;DHT22;1945;52.036;8.614;2022-11-02T12:33:00;14.20;99.90
3860;DHT22;1945;52.036;8.614;2022-11-02T12:35:53;14.10;99.90
3860;DHT22;1945;52.036;8.614;2022-11-02T12:38:48;14.10;99.90
3860;DHT22;1945;52.036;8.614;2022-11-02T12:41:22;14.10;99.90
3860;DHT22;1945;52.036;8.614;2022-11-02T12:43:58;14.00;99.90
3860;DHT22;1945;52.036;8.614;2022-11-02T12:46:37;13.90;99.90
3860;DHT22;1945;52.036;8.614;2022-11-02T12:49:23;13.90;99.90
3860;DHT22;1945;52.036;8.614;2022-11-02T12:51:56;13.80;99.90
3860;DHT22;1945;52.036;8.614;2022-11-02T12:54:33;13.90;99.90
3860;DHT22;1945;52.036;8.614;2022-11-02T12:57:02;13.90;99.90
3860;DHT22;1945;52.036;8.614;2022-11-02T12:59:31;13.90;99.90
3860;DHT22;1945;52.036;8.614;2022-11-02T13:02:04;14.00;99.90
3860;DHT22;1945;52.036;8.614;2022-11-02T13:04:37;14.00;99.90
3860;DHT22;1945;52.036;8.614;2022-11-02T13:07:11;14.00;99.90
3860;DHT22;1945;52.036;8.614;2022-11-02T13:09:43;13.90;99.90
3860;DHT22;1945;52.036;8.614;2022-11-02T13:12:14;13.90;99.90
3860;DHT22;1945;52.036;8.614;2022-11-02T13:14:46;13.80;99.90
3860;DHT22;1945;52.036;8.614;2022-11-02T13:17:18;13.90;99.90
3860;DHT22;1945;52.036;8.614;2022-11-02T13:19:49;14.00;99.90
3860;DHT22;1945;52.036;8.614;2022-11-02T13:22:19;14.00;99.90
3860;DHT22;1945;52.036;8.614;2022-11-02T13:24:48;14.00;99.90
3860;DHT22;1945;52.036;8.614;2022-11-02T13:27:26;14.00;99.90
3860;DHT22;1945;52.036;8.614;2022-11-02T13:29:57;14.00;99.90
3860;DHT22;1945;52.036;8.614;2022-11-02T13:32:29;14.10;99.90
3860;DHT22;1945;52.036;8.614;2022-11-02T13:34:58;14.00;99.90
3860;DHT22;1945;52.036;8.614;2022-11-02T13:37:32;14.00;99.90
3860;DHT22;1945;52.036;8.614;2022-11-02T13:40:03;14.10;99.90
3860;DHT22;1945;52.036;8.614;2022-11-02T13:45:40;14.00;99.90
3860;DHT22;1945;52.036;8.614;2022-11-02T13:48:33;14.00;99.90
3860;DHT22;1945;52.036;8.614;2022-11-02T13:51:05;14.00;99.90
3860;DHT22;1945;52.036;8.614;2022-11-02T13:53:36;14.00;99.90
3860;DHT22;1945;52.036;8.614;2022-11-02T13:56:21;14.00;99.90
3860;DHT22;1945;52.036;8.614;2022-11-02T13:58:53;14.00;99.90
3860;DHT22;1945;52.036;8.614;2022-11-02T14:01:22;14.00;99.90
3860;DHT22;1945;52.036;8.614;2022-11-02T14:03:53;14.00;99.90
3860;DHT22;1945;52.036;8.614;2022-11-02T14:06:22;14.00;99.90
3860;DHT22;1945;52.036;8.614;2022-11-02T14:08:52;13.90;99.90
3860;DHT22;1945;52.036;8.614;2022-11-02T14:11:35;13.90;99.90
3860;DHT22;1945;52.036;8.614;2022-11-02T14:14:19;13.90;99.90
3860;DHT22;1945;52.036;8.614;2022-11-02T14:17:12;13.80;99.90
3860;DHT22;1945;52.036;8.614;2022-11-02T14:19:54;13.80;99.90
3860;DHT22;1945;52.036;8.614;2022-11-02T14:22:28;13.80;99.90
3860;DHT22;1945;52.036;8.614;2022-11-02T14:25:13;13.80;99.90
3860;DHT22;1945;52.036;8.614;2022-11-02T14:27:55;13.70;99.90
3860;DHT22;1945;52.036;8.614;2022-11-02T14:30:42;13.70;99.90
3860;DHT22;1945;52.036;8.614;2022-11-02T14:33:37;13.70;99.90
3860;DHT22;1945;52.036;8.614;2022-11-02T14:36:17;13.60;99.90
3860;DHT22;1945;52.036;8.614;2022-11-02T14:39:08;13.60;99.90
3860;DHT22;1945;52.036;8.614;2022-11-02T14:42:05;13.60;99.90
3860;DHT22;1945;52.036;8.614;2022-11-02T14:45:01;13.60;99.90
3860;DHT22;1945;52.036;8.614;2022-11-02T14:47:33;13.60;99.90
3860;DHT22;1945;52.036;8.614;2022-11-02T14:50:06;13.50;99.90
3860;DHT22;1945;52.036;8.614;2022-11-02T14:52:36;13.50;99.90
3860;DHT22;1945;52.036;8.614;2022-11-02T14:55:06;13.50;99.90
3860;DHT22;1945;52.036;8.614;2022-11-02T14:57:37;13.40;99.90
3860;DHT22;1945;52.036;8.614;2022-11-02T15:00:16;13.30;99.90
3860;DHT22;1945;52.036;8.614;2022-11-02T15:02:46;13.30;99.90
3860;DHT22;1945;52.036;8.614;2022-11-02T15:05:22;13.30;99.90
3860;DHT22;1945;52.036;8.614;2022-11-02T15:08:06;13.30;99.90
3860;DHT22;1945;52.036;8.614;2022-11-02T15:10:45;13.20;99.90
3860;DHT22;1945;52.036;8.614;2022-11-02T15:13:32;13.20;99.90
3860;DHT22;1945;52.036;8.614;2022-11-02T15:16:22;13.20;99.90
3860;DHT22;1945;52.036;8.614;2022-11-02T15:18:49;13.10;99.90
3860;DHT22;1945;52.036;8.614;2022-11-02T15:21:23;13.00;99.90
3860;DHT22;1945;52.036;8.614;2022-11-02T15:24:07;13.00;99.90
3860;DHT22;1945;52.036;8.614;2022-11-02T15:26:42;12.90;99.90
3860;DHT22;1945;52.036;8.614;2022-11-02T15:31:57;12.80;1.00
3860;DHT22;1945;52.036;8.614;2022-11-02T15:34:30;12.80;1.00
3860;DHT22;1945;52.036;8.614;2022-11-02T15:36:59;12.70;1.00
3860;DHT22;1945;52.036;8.614;2022-11-02T15:39:29;12.60;1.00
3860;DHT22;1945;52.036;8.614;2022-11-02T15:42:02;12.50;1.00
3860;DHT22;1945;52.036;8.614;2022-11-02T15:44:58;12.40;1.00
3860;DHT22;1945;52.036;8.614;2022-11-02T15:47:37;12.40;1.00
3860;DHT22;1945;52.036;8.614;2022-11-02T15:50:28;12.30;1.00
3860;DHT22;1945;52.036;8.614;2022-11-02T15:53:17;12.30;1.00
3860;DHT22;1945;52.036;8.614;2022-11-02T15:55:57;12.10;1.00
3860;DHT22;1945;52.036;8.614;2022-11-02T15:58:34;12.10;1.00
3860;DHT22;1945;52.036;8.614;2022-11-02T16:01:13;12.00;1.00
3860;DHT22;1945;52.036;8.614;2022-11-02T16:03:44;11.90;1.00
3860;DHT22;1945;52.036;8.614;2022-11-02T16:06:12;11.80;1.00
3860;DHT22;1945;52.036;8.614;2022-11-02T16:08:39;11.80;1.00
3860;DHT22;1945;52.036;8.614;2022-11-02T16:11:12;11.70;1.00
3860;DHT22;1945;52.036;8.614;2022-11-02T16:13:42;11.60;40.40
3860;DHT22;1945;52.036;8.614;2022-11-02T16:16:12;11.50;99.90
3860;DHT22;1945;52.036;8.614;2022-11-02T16:18:40;11.50;99.90
3860;DHT22;1945;52.036;8.614;2022-11-02T16:21:12;11.50;99.90
3860;DHT22;1945;52.036;8.614;2022-11-02T16:23:41;11.50;99.90
3860;DHT22;1945;52.036;8.614;2022-11-02T16:26:15;11.50;99.90
3860;DHT22;1945;52.036;8.614;2022-11-02T16:28:49;11.40;99.90
3860;DHT22;1945;52.036;8.614;2022-11-02T16:31:19;11.30;99.90
3860;DHT22;1945;52.036;8.614;2022-11-02T16:33:48;11.30;99.90
3860;DHT22;1945;52.036;8.614;2022-11-02T16:36:17;11.20;99.90
3860;DHT22;1945;52.036;8.614;2022-11-02T16:38:47;11.20;99.90
3860;DHT22;1945;52.036;8.614;2022-11-02T16:41:17;11.20;99.90
3860;DHT22;1945;52.036;8.614;2022-11-02T16:43:45;11.10;99.90
3860;DHT22;1945;52.036;8.614;2022-11-02T16:46:15;11.00;99.90
3860;DHT22;1945;52.036;8.614;2022-11-02T16:49:05;11.00;99.90
3860;DHT22;1945;52.036;8.614;2022-11-02T16:51:32;11.00;99.90
3860;DHT22;1945;52.036;8.614;2022-11-02T16:54:27;11.00;99.90